createdAt,value
2018-05-21T10:15:35.628Z,7335.00
2018-05-21T10:16:35.619Z,618.75
2018-05-21T10:18:28.814Z,1276.88
2018-05-21T10:19:28.842Z,511.88
2018-05-21T10:21:22.023Z,3909.38
2018-05-21T10:22:22.042Z,7914.38
2018-05-21T10:24:15.428Z,7773.75
2018-05-21T10:25:15.449Z,7306.88
2018-05-21T10:27:08.652Z,2975.63
2018-05-21T10:28:08.674Z,6446.25
2018-05-21T10:30:01.848Z,7475.63
2018-05-21T10:31:01.894Z,8206.88
2018-05-21T10:33:12.431Z,5546.25
2018-05-21T10:34:12.457Z,7515.00
2018-05-21T10:36:05.661Z,5715.00
2018-05-21T10:37:05.711Z,7976.25
2018-05-21T10:38:58.918Z,8426.25
2018-05-21T10:39:58.954Z,8032.50
2018-05-21T10:41:52.187Z,7633.13
2018-05-21T10:42:52.219Z,7931.25
2018-05-21T10:44:45.464Z,8122.50
2018-05-21T10:45:45.501Z,8190.00
2018-05-21T10:47:38.707Z,7914.38
2018-05-21T10:48:38.728Z,680.63
2018-05-21T10:50:46.740Z,8173.13
2018-05-21T10:51:46.344Z,4876.88
2018-05-21T10:53:39.524Z,1383.75
2018-05-21T10:54:39.545Z,483.75
2018-05-21T10:56:32.723Z,8347.50
2018-05-21T10:57:32.775Z,8420.63
2018-05-21T10:59:26.026Z,7953.75
2018-05-21T11:00:26.082Z,8161.88
2018-05-21T11:02:19.256Z,7470.00
2018-05-21T11:03:19.410Z,7447.50
2018-05-21T11:05:12.593Z,7183.13
2018-05-21T11:06:12.614Z,871.88
2018-05-21T11:08:05.780Z,894.38
2018-05-21T11:09:05.796Z,3240.00
2018-05-21T11:10:59.036Z,4668.75
2018-05-21T11:11:59.061Z,2553.75
2018-05-21T11:13:52.451Z,658.13
2018-05-21T11:14:52.344Z,838.13
2018-05-21T11:16:45.586Z,455.63
2018-05-21T11:17:45.597Z,624.38
2018-05-21T11:19:38.839Z,461.25
2018-05-21T11:20:38.843Z,495.00
2018-05-21T11:21:38.924Z,444.38
2018-05-21T11:22:38.955Z,405.00
2018-05-21T11:23:39.007Z,253.13
2018-05-21T11:24:39.056Z,438.75
2018-05-21T11:25:39.052Z,461.25
2018-05-21T11:26:39.061Z,461.25
2018-05-21T11:27:39.097Z,511.88
2018-05-21T11:28:39.141Z,388.13
2018-05-21T11:29:39.157Z,427.50
2018-05-21T11:30:39.255Z,421.88
2018-05-21T11:31:39.315Z,421.88
2018-05-21T11:32:39.273Z,438.75
2018-05-21T11:33:39.301Z,466.88
2018-05-21T11:34:39.341Z,450.00
2018-05-21T11:35:39.363Z,388.13
2018-05-21T11:36:39.393Z,438.75
2018-05-21T11:37:39.432Z,444.38
2018-05-21T11:38:39.467Z,365.63
2018-05-21T11:39:39.504Z,416.25
2018-05-21T11:40:39.539Z,382.50
2018-05-21T11:41:39.578Z,388.13
2018-05-21T11:42:39.604Z,376.88
2018-05-21T11:43:39.629Z,393.75
2018-05-21T11:44:39.691Z,427.50
2018-05-21T11:45:39.695Z,376.88
2018-05-21T11:46:39.751Z,382.50
2018-05-21T11:47:39.760Z,213.75
2018-05-21T11:48:39.792Z,253.13
2018-05-21T11:49:39.833Z,303.75
2018-05-21T11:50:39.935Z,303.75
2018-05-21T11:51:39.997Z,298.13
2018-05-21T11:52:39.935Z,315.00
2018-05-21T11:53:40.022Z,337.50
2018-05-21T11:54:39.999Z,309.38
2018-05-21T11:55:40.016Z,292.50
2018-05-21T11:56:40.051Z,298.13
2018-05-21T11:57:40.086Z,241.88
2018-05-21T11:58:40.126Z,320.63
2018-05-21T11:59:40.141Z,298.13
2018-05-21T12:00:40.178Z,360.00
2018-05-21T12:01:40.238Z,264.38
2018-05-21T12:02:40.272Z,320.63
2018-05-21T12:03:40.314Z,315.00
2018-05-21T12:04:40.308Z,320.63
2018-05-21T12:05:40.335Z,320.63
2018-05-21T12:06:40.366Z,331.88
2018-05-21T12:07:40.418Z,326.25
2018-05-21T12:08:40.442Z,264.38
2018-05-21T12:09:40.467Z,258.75
2018-05-21T12:10:40.497Z,275.63
2018-05-21T12:11:40.599Z,270.00
2018-05-21T12:12:40.652Z,241.88
2018-05-21T12:13:40.590Z,264.38
2018-05-21T12:14:40.626Z,298.13
2018-05-21T12:15:40.666Z,298.13
2018-05-21T12:16:40.695Z,331.88
2018-05-21T12:17:40.729Z,343.13
2018-05-21T12:18:40.771Z,376.88
2018-05-21T12:19:40.796Z,337.50
2018-05-21T12:20:40.815Z,281.25
2018-05-21T12:21:40.872Z,247.50
2018-05-21T12:22:40.881Z,253.13
2018-05-21T12:23:40.905Z,236.25
2018-05-21T12:24:40.950Z,247.50
2018-05-21T12:25:40.965Z,241.88
2018-05-21T12:26:41.014Z,225.00
2018-05-21T12:27:41.033Z,196.88
2018-05-21T12:28:41.183Z,230.63
2018-05-21T12:29:41.107Z,202.50
2018-05-21T12:30:41.147Z,253.13
2018-05-21T12:31:41.161Z,247.50
2018-05-21T12:32:41.228Z,236.25
2018-05-21T12:33:41.260Z,219.38
2018-05-21T12:34:41.249Z,202.50
2018-05-21T12:35:41.283Z,196.88
2018-05-21T12:36:41.328Z,185.63
2018-05-21T12:37:41.363Z,168.75
2018-05-21T12:38:41.380Z,180.00
2018-05-21T12:39:41.407Z,168.75
2018-05-21T12:40:41.578Z,185.63
2018-05-21T12:41:41.532Z,191.25
2018-05-21T12:42:41.514Z,213.75
2018-05-21T12:43:41.548Z,208.13
2018-05-21T12:44:41.559Z,208.13
2018-05-21T12:45:41.696Z,196.88
2018-05-21T12:46:41.654Z,180.00
2018-05-21T12:47:41.675Z,168.75
2018-05-21T12:48:41.682Z,168.75
2018-05-21T12:49:41.728Z,140.63
2018-05-21T12:50:41.743Z,135.00
2018-05-21T12:51:41.773Z,146.25
2018-05-21T12:52:41.811Z,140.63
2018-05-21T12:53:41.842Z,140.63
2018-05-21T12:54:41.910Z,151.88
2018-05-21T12:55:41.905Z,168.75
2018-05-21T12:56:41.947Z,213.75
2018-05-21T12:57:41.984Z,213.75
2018-05-21T12:58:41.990Z,151.88
2018-05-21T12:59:42.028Z,146.25
2018-05-21T13:00:42.059Z,112.50
2018-05-21T13:01:42.088Z,140.63
2018-05-21T13:02:42.176Z,213.75
2018-05-21T13:03:42.150Z,225.00
2018-05-21T13:04:42.173Z,157.50
2018-05-21T13:05:42.224Z,163.13
2018-05-21T13:06:42.258Z,151.88
2018-05-21T13:07:42.269Z,146.25
2018-05-21T13:08:42.304Z,157.50
2018-05-21T13:09:42.344Z,163.13
2018-05-21T13:10:42.359Z,157.50
2018-05-21T13:11:42.399Z,163.13
2018-05-21T13:12:42.438Z,163.13
2018-05-21T13:13:42.458Z,146.25
2018-05-21T13:14:42.490Z,129.38
2018-05-21T13:15:42.513Z,129.38
2018-05-21T13:16:42.565Z,129.38
2018-05-21T13:17:42.582Z,123.75
2018-05-21T13:18:42.622Z,118.13
2018-05-21T13:19:42.658Z,106.88
2018-05-21T13:20:42.676Z,123.75
2018-05-21T13:21:42.703Z,112.50
2018-05-21T13:22:42.732Z,118.13
2018-05-21T13:23:42.770Z,123.75
2018-05-21T13:24:42.798Z,129.38
2018-05-21T13:25:42.831Z,106.88
2018-05-21T13:26:42.863Z,135.00
2018-05-21T13:27:42.889Z,135.00
2018-05-21T13:28:42.916Z,123.75
2018-05-21T13:29:42.961Z,118.13
2018-05-21T13:30:42.977Z,112.50
2018-05-21T13:31:43.093Z,123.75
2018-05-21T13:32:43.041Z,118.13
2018-05-21T13:33:43.067Z,112.50
2018-05-21T13:34:43.171Z,118.13
2018-05-21T13:35:43.125Z,129.38
2018-05-21T13:36:43.168Z,90.00
2018-05-21T13:37:43.197Z,123.75
2018-05-21T13:38:43.237Z,151.88
2018-05-21T13:39:43.264Z,146.25
2018-05-21T13:40:43.286Z,157.50
2018-05-21T13:41:43.404Z,151.88
2018-05-21T13:42:43.342Z,151.88
2018-05-21T13:43:43.375Z,146.25
2018-05-21T13:44:43.413Z,135.00
2018-05-21T13:45:43.449Z,112.50
2018-05-21T13:46:43.471Z,112.50
2018-05-21T13:47:43.501Z,106.88
2018-05-21T13:48:43.532Z,112.50
2018-05-21T13:49:43.565Z,95.63
2018-05-21T13:50:43.613Z,84.38
2018-05-21T13:51:43.630Z,84.38
2018-05-21T13:52:43.661Z,90.00
2018-05-21T13:53:43.681Z,90.00
2018-05-21T13:54:43.713Z,84.38
2018-05-21T13:55:43.745Z,84.38
2018-05-21T13:56:43.796Z,90.00
2018-05-21T13:57:43.802Z,78.75
2018-05-21T13:58:43.847Z,73.13
2018-05-21T13:59:43.874Z,78.75
2018-05-21T14:00:43.909Z,84.38
2018-05-21T14:01:43.937Z,73.13
2018-05-21T14:02:43.960Z,84.38
2018-05-21T14:03:44.004Z,84.38
2018-05-21T14:04:44.044Z,90.00
2018-05-21T14:05:44.114Z,90.00
2018-05-21T14:06:44.078Z,90.00
2018-05-21T14:07:45.086Z,95.63
2018-05-21T14:08:44.136Z,95.63
2018-05-21T14:09:44.176Z,90.00
2018-05-21T14:10:44.200Z,78.75
2018-05-21T14:11:44.232Z,84.38
2018-05-21T14:12:44.260Z,78.75
2018-05-21T14:13:44.309Z,73.13
2018-05-21T14:14:44.334Z,90.00
2018-05-21T14:15:44.367Z,95.63
2018-05-21T14:16:44.411Z,101.25
2018-05-21T14:17:44.413Z,90.00
2018-05-21T14:18:44.463Z,84.38
2018-05-21T14:19:44.471Z,90.00
2018-05-21T14:20:44.502Z,84.38
2018-05-21T14:21:44.538Z,84.38
2018-05-21T14:22:44.568Z,84.38
2018-05-21T14:23:44.597Z,78.75
2018-05-21T14:24:44.625Z,67.50
2018-05-21T14:25:44.656Z,84.38
2018-05-21T14:26:44.690Z,106.88
2018-05-21T14:27:44.737Z,118.13
2018-05-21T14:28:44.755Z,123.75
2018-05-21T14:29:44.878Z,135.00
2018-05-21T14:30:44.809Z,140.63
2018-05-21T14:31:44.873Z,95.63
2018-05-21T14:32:44.938Z,106.88
2018-05-21T14:33:44.932Z,106.88
2018-05-21T14:34:44.942Z,90.00
2018-05-21T14:35:44.998Z,106.88
2018-05-21T14:36:45.010Z,95.63
2018-05-21T14:37:45.025Z,67.50
2018-05-21T14:38:45.051Z,61.88
2018-05-21T14:39:45.082Z,61.88
2018-05-21T14:40:45.118Z,73.13
2018-05-21T14:41:45.141Z,84.38
2018-05-21T14:42:45.176Z,118.13
2018-05-21T14:43:45.202Z,123.75
2018-05-21T14:44:45.242Z,112.50
2018-05-21T14:45:45.264Z,118.13
2018-05-21T14:46:45.305Z,118.13
2018-05-21T14:47:45.335Z,135.00
2018-05-21T14:48:45.364Z,112.50
2018-05-21T14:49:45.405Z,118.13
2018-05-21T14:50:45.424Z,123.75
2018-05-21T14:51:45.467Z,84.38
2018-05-21T14:52:45.475Z,95.63
2018-05-21T14:53:45.507Z,118.13
2018-05-21T14:54:45.543Z,106.88
2018-05-21T14:55:45.569Z,101.25
2018-05-21T14:56:45.597Z,112.50
2018-05-21T14:57:45.645Z,95.63
2018-05-21T14:58:45.667Z,123.75
2018-05-21T14:59:45.693Z,140.63
2018-05-21T15:00:45.718Z,112.50
2018-05-21T15:01:45.748Z,112.50
2018-05-21T15:02:45.788Z,118.13
2018-05-21T15:03:45.814Z,106.88
2018-05-21T15:04:45.858Z,90.00
2018-05-21T15:05:45.890Z,73.13
2018-05-21T15:06:45.906Z,67.50
2018-05-21T15:07:46.594Z,73.13
2018-05-21T15:08:45.961Z,61.88
2018-05-21T15:09:46.025Z,56.25
2018-05-21T15:10:46.025Z,61.88
2018-05-21T15:11:46.051Z,61.88
2018-05-21T15:12:46.090Z,67.50
2018-05-21T15:13:46.127Z,61.88
2018-05-21T15:14:46.152Z,73.13
2018-05-21T15:15:46.184Z,56.25
2018-05-21T15:16:46.219Z,67.50
2018-05-21T15:17:46.376Z,78.75
2018-05-21T15:18:46.382Z,112.50
2018-05-21T15:19:46.296Z,129.38
2018-05-21T15:20:46.344Z,112.50
2018-05-21T15:21:46.360Z,101.25
2018-05-21T15:22:46.408Z,84.38
2018-05-21T15:23:46.444Z,73.13
2018-05-21T15:24:46.459Z,67.50
2018-05-21T15:25:46.485Z,61.88
2018-05-21T15:26:46.529Z,56.25
2018-05-21T15:27:46.560Z,61.88
2018-05-21T15:28:46.585Z,56.25
2018-05-21T15:29:46.605Z,56.25
2018-05-21T15:30:46.635Z,61.88
2018-05-21T15:31:46.669Z,56.25
2018-05-21T15:32:46.716Z,61.88
2018-05-21T15:33:46.722Z,73.13
2018-05-21T15:34:46.748Z,112.50
2018-05-21T15:35:46.828Z,135.00
2018-05-21T15:36:46.809Z,123.75
2018-05-21T15:37:46.846Z,118.13
2018-05-21T15:38:46.879Z,118.13
2018-05-21T15:39:46.910Z,95.63
2018-05-21T15:40:46.951Z,78.75
2018-05-21T15:41:46.966Z,61.88
2018-05-21T15:42:47.006Z,50.63
2018-05-21T15:43:47.042Z,50.63
2018-05-21T15:44:47.072Z,45.00
2018-05-21T15:45:47.082Z,45.00
2018-05-21T15:46:47.130Z,50.63
2018-05-21T15:47:47.145Z,50.63
2018-05-21T15:48:47.177Z,45.00
2018-05-21T15:49:47.205Z,45.00
2018-05-21T15:50:47.237Z,50.63
2018-05-21T15:51:47.270Z,61.88
2018-05-21T15:52:47.296Z,73.13
2018-05-21T15:53:47.336Z,78.75
2018-05-21T15:54:47.357Z,67.50
2018-05-21T15:55:47.394Z,73.13
2018-05-21T15:56:47.427Z,50.63
2018-05-21T15:57:47.479Z,50.63
2018-05-21T15:58:47.486Z,50.63
2018-05-21T15:59:47.558Z,50.63
2018-05-21T16:00:47.539Z,45.00
2018-05-21T16:01:47.567Z,50.63
2018-05-21T16:02:47.598Z,45.00
2018-05-21T16:03:47.642Z,45.00
2018-05-21T16:04:47.672Z,45.00
2018-05-21T16:05:47.692Z,50.63
2018-05-21T16:06:47.736Z,50.63
2018-05-21T16:07:47.764Z,50.63
2018-05-21T16:08:47.785Z,56.25
2018-05-21T16:09:47.819Z,73.13
2018-05-21T16:10:47.838Z,73.13
2018-05-21T16:11:47.870Z,73.13
2018-05-21T16:12:47.928Z,67.50
2018-05-21T16:13:47.937Z,56.25
2018-05-21T16:14:47.969Z,61.88
2018-05-21T16:15:48.008Z,50.63
2018-05-21T16:16:48.125Z,50.63
2018-05-21T16:17:48.105Z,56.25
2018-05-21T16:18:48.151Z,56.25
2018-05-21T16:19:48.113Z,50.63
2018-05-21T16:20:48.146Z,45.00
2018-05-21T16:21:48.186Z,45.00
2018-05-21T16:22:48.205Z,45.00
2018-05-21T16:23:48.238Z,45.00
2018-05-21T16:24:48.272Z,45.00
2018-05-21T16:25:48.319Z,45.00
2018-05-21T16:26:48.336Z,45.00
2018-05-21T16:27:48.496Z,45.00
2018-05-21T16:28:48.394Z,50.63
2018-05-21T16:29:48.418Z,50.63
2018-05-21T16:30:48.447Z,56.25
2018-05-21T16:31:48.473Z,45.00
2018-05-21T16:32:48.517Z,45.00
2018-05-21T16:33:48.547Z,45.00
2018-05-21T16:34:48.574Z,39.38
2018-05-21T16:35:48.598Z,39.38
2018-05-21T16:36:48.718Z,39.38
2018-05-21T16:37:48.668Z,39.38
2018-05-21T16:38:48.700Z,39.38
2018-05-21T16:39:48.741Z,39.38
2018-05-21T16:40:48.750Z,39.38
2018-05-21T16:41:48.800Z,39.38
2018-05-21T16:42:48.815Z,39.38
2018-05-21T16:43:48.848Z,33.75
2018-05-21T16:44:48.880Z,33.75
2018-05-21T16:45:48.897Z,39.38
2018-05-21T16:46:48.935Z,33.75
2018-05-21T16:47:48.994Z,33.75
2018-05-21T16:48:49.001Z,33.75
2018-05-21T16:49:49.021Z,39.38
2018-05-21T16:50:49.057Z,28.13
2018-05-21T16:51:49.088Z,33.75
2018-05-21T16:52:49.113Z,33.75
2018-05-21T16:53:49.160Z,33.75
2018-05-21T16:54:49.210Z,39.38
2018-05-21T16:55:49.202Z,33.75
2018-05-21T16:56:49.257Z,33.75
2018-05-21T16:57:49.269Z,33.75
2018-05-21T16:58:49.289Z,33.75
2018-05-21T16:59:49.331Z,39.38
2018-05-21T17:00:49.359Z,33.75
2018-05-21T17:01:49.404Z,39.38
2018-05-21T17:02:49.417Z,39.38
2018-05-21T17:03:49.451Z,28.13
2018-05-21T17:04:49.591Z,28.13
2018-05-21T17:05:49.518Z,33.75
2018-05-21T17:06:49.554Z,33.75
2018-05-21T17:07:49.558Z,28.13
2018-05-21T17:08:49.594Z,28.13
2018-05-21T17:09:49.630Z,28.13
2018-05-21T17:10:49.655Z,22.50
2018-05-21T17:11:49.678Z,28.13
2018-05-21T17:12:49.744Z,28.13
2018-05-21T17:13:49.762Z,33.75
2018-05-21T17:14:49.778Z,28.13
2018-05-21T17:15:49.808Z,28.13
2018-05-21T17:16:49.848Z,28.13
2018-05-21T17:17:49.894Z,28.13
2018-05-21T17:18:49.895Z,22.50
2018-05-21T17:19:49.922Z,28.13
2018-05-21T17:20:49.961Z,22.50
2018-05-21T17:21:49.986Z,28.13
2018-05-21T17:22:50.022Z,22.50
2018-05-21T17:23:50.048Z,22.50
2018-05-21T17:24:50.104Z,28.13
2018-05-21T17:25:50.879Z,28.13
2018-05-21T17:26:50.147Z,28.13
2018-05-21T17:27:50.181Z,22.50
2018-05-21T17:28:50.198Z,22.50
2018-05-21T17:29:50.225Z,28.13
2018-05-21T17:30:50.277Z,22.50
2018-05-21T17:31:50.288Z,22.50
2018-05-21T17:32:50.324Z,22.50
2018-05-21T17:33:50.352Z,22.50
2018-05-21T17:34:50.372Z,22.50
2018-05-21T17:35:50.535Z,22.50
2018-05-21T17:36:50.459Z,28.13
2018-05-21T17:37:50.474Z,22.50
2018-05-21T17:38:50.582Z,28.13
2018-05-21T17:39:50.672Z,22.50
2018-05-21T17:40:50.566Z,22.50
2018-05-21T17:41:50.609Z,22.50
2018-05-21T17:42:50.638Z,22.50
2018-05-21T17:43:50.643Z,22.50
2018-05-21T17:44:50.686Z,22.50
2018-05-21T17:45:50.706Z,22.50
2018-05-21T17:46:50.777Z,11.25
2018-05-21T17:47:50.785Z,16.88
2018-05-21T17:48:50.823Z,16.88
2018-05-21T17:49:50.835Z,16.88
2018-05-21T17:50:50.910Z,16.88
2018-05-21T17:51:50.984Z,16.88
2018-05-21T17:52:50.918Z,16.88
2018-05-21T17:53:50.964Z,16.88
2018-05-21T17:54:50.974Z,16.88
2018-05-21T17:55:51.025Z,16.88
2018-05-21T17:56:51.049Z,16.88
2018-05-21T17:57:51.145Z,16.88
2018-05-21T17:58:51.097Z,16.88
2018-05-21T17:59:51.142Z,16.88
2018-05-21T18:00:51.163Z,16.88
2018-05-21T18:01:51.182Z,16.88
2018-05-21T18:02:51.221Z,16.88
2018-05-21T18:03:51.327Z,16.88
2018-05-21T18:04:51.284Z,16.88
2018-05-21T18:05:51.328Z,16.88
2018-05-21T18:06:51.344Z,16.88
2018-05-21T18:07:51.429Z,16.88
2018-05-21T18:08:51.519Z,11.25
2018-05-21T18:09:51.438Z,16.88
2018-05-21T18:10:51.541Z,11.25
2018-05-21T18:11:51.499Z,11.25
2018-05-21T18:13:51.540Z,11.25
2018-05-21T18:14:51.645Z,11.25
2018-05-21T18:15:51.631Z,11.25
2018-05-21T18:16:51.642Z,11.25
2018-05-21T18:17:51.745Z,11.25
2018-05-21T18:18:51.731Z,11.25
2018-05-21T18:19:51.732Z,11.25
2018-05-21T18:20:51.783Z,11.25
2018-05-21T18:21:51.804Z,11.25
2018-05-21T18:22:51.833Z,11.25
2018-05-21T18:23:51.851Z,11.25
2018-05-21T18:24:52.012Z,5.63
2018-05-21T18:25:51.900Z,11.25
2018-05-21T18:26:51.934Z,11.25
2018-05-21T18:28:52.079Z,11.25
2018-05-21T18:29:52.043Z,5.63
2018-05-21T18:30:52.063Z,5.63
2018-05-21T18:31:52.155Z,5.63
2018-05-21T18:32:52.133Z,5.63
2018-05-21T18:33:52.169Z,5.63
2018-05-21T18:34:52.186Z,5.63
2018-05-21T18:35:52.321Z,5.63
2018-05-21T18:36:52.249Z,5.63
2018-05-21T18:37:52.294Z,5.63
2018-05-21T18:38:52.354Z,5.63
2018-05-21T18:39:52.342Z,5.63
2018-05-21T18:40:52.368Z,5.63
2018-05-21T18:41:52.449Z,5.63
2018-05-21T18:42:52.565Z,5.63
2018-05-21T18:43:52.471Z,5.63
2018-05-21T18:44:52.658Z,5.63
2018-05-21T18:45:52.634Z,5.63
2018-05-21T18:46:52.692Z,5.63
2018-05-21T18:47:52.671Z,5.63
2018-05-21T18:48:53.091Z,5.63
2018-05-21T18:49:52.660Z,0.00
2018-05-21T18:50:52.720Z,0.00
2018-05-21T18:51:52.940Z,0.00
2018-05-21T18:52:52.756Z,0.00
2018-05-21T18:54:52.863Z,0.00
2018-05-21T18:55:52.850Z,0.00
2018-05-21T18:56:52.873Z,0.00
2018-05-21T18:57:52.874Z,0.00
2018-05-21T18:58:52.966Z,0.00
2018-05-21T18:59:52.965Z,0.00
2018-05-21T19:00:52.991Z,0.00
2018-05-21T19:01:53.043Z,0.00
2018-05-21T19:02:53.087Z,0.00
2018-05-21T19:03:53.072Z,0.00
2018-05-21T19:05:53.227Z,0.00
2018-05-21T19:06:53.998Z,0.00
2018-05-21T19:07:53.268Z,0.00
2018-05-21T19:08:53.333Z,0.00
2018-05-21T19:09:53.297Z,0.00
2018-05-21T19:10:53.410Z,0.00
2018-05-21T19:12:14.453Z,0.00
2018-05-21T19:12:53.417Z,0.00
2018-05-21T19:13:53.483Z,0.00
2018-05-21T19:14:53.518Z,0.00
2018-05-21T19:15:53.628Z,0.00
2018-05-21T19:16:53.529Z,0.00
2018-05-21T19:18:14.623Z,0.00
2018-05-21T19:18:53.673Z,0.00
2018-05-21T19:19:53.631Z,0.00
2018-05-21T19:20:53.741Z,0.00
2018-05-21T19:21:53.719Z,0.00
2018-05-21T19:22:53.755Z,0.00
2018-05-21T19:24:14.841Z,0.00
2018-05-21T19:24:53.801Z,0.00
2018-05-21T19:25:53.826Z,0.00
2018-05-21T19:26:53.855Z,0.00
2018-05-21T19:27:53.854Z,0.00
2018-05-21T19:28:53.854Z,0.00
2018-05-21T19:30:14.935Z,0.00
2018-05-21T19:30:53.957Z,0.00
2018-05-21T19:31:53.971Z,0.00
2018-05-21T19:32:54.036Z,0.00
2018-05-21T19:33:54.043Z,0.00
2018-05-21T19:34:54.151Z,0.00
2018-05-21T19:36:15.149Z,0.00
2018-05-21T19:36:54.219Z,0.00
2018-05-21T19:37:54.245Z,0.00
2018-05-21T19:38:54.255Z,0.00
2018-05-21T19:39:54.247Z,0.00
2018-05-21T19:40:54.249Z,0.00
2018-05-21T19:42:15.380Z,0.00
2018-05-21T19:42:54.293Z,0.00
2018-05-21T19:43:54.326Z,0.00
2018-05-21T19:44:54.373Z,0.00
2018-05-21T19:45:54.445Z,0.00
2018-05-21T19:46:54.427Z,0.00
2018-05-21T19:48:15.477Z,0.00
2018-05-21T19:48:54.486Z,0.00
2018-05-21T19:49:54.547Z,0.00
2018-05-21T19:50:54.568Z,0.00
2018-05-21T19:51:54.629Z,0.00
2018-05-21T19:52:55.411Z,0.00
2018-05-21T19:54:15.677Z,0.00
2018-05-21T19:54:54.709Z,0.00
2018-05-21T19:55:54.767Z,0.00
2018-05-21T19:56:54.750Z,0.00
2018-05-21T19:57:54.747Z,0.00
2018-05-21T19:58:54.804Z,0.00
2018-05-21T20:00:15.916Z,0.00
2018-05-21T20:00:54.843Z,0.00
2018-05-21T20:01:54.873Z,0.00
2018-05-21T20:02:54.912Z,0.00
2018-05-21T20:03:55.006Z,0.00
2018-05-21T20:04:54.988Z,0.00
2018-05-21T20:06:16.031Z,0.00
2018-05-21T20:06:55.030Z,0.00
2018-05-21T20:07:55.074Z,0.00
2018-05-21T20:08:55.101Z,0.00
2018-05-21T20:09:55.179Z,0.00
2018-05-21T20:10:55.198Z,0.00
2018-05-21T20:12:16.271Z,0.00
2018-05-21T20:12:55.241Z,0.00
2018-05-21T20:13:55.304Z,0.00
2018-05-21T20:14:55.263Z,0.00
2018-05-21T20:15:55.389Z,0.00
2018-05-21T20:16:55.412Z,0.00
2018-05-21T20:18:16.365Z,0.00
2018-05-21T20:18:55.373Z,0.00
2018-05-21T20:19:55.413Z,0.00
2018-05-21T20:20:55.428Z,0.00
2018-05-21T20:21:55.457Z,0.00
2018-05-21T20:22:55.497Z,0.00
2018-05-21T20:24:16.595Z,0.00
2018-05-21T20:24:55.527Z,0.00
2018-05-21T20:25:55.571Z,0.00
2018-05-21T20:26:55.594Z,0.00
2018-05-21T20:27:55.666Z,0.00
2018-05-21T20:28:55.720Z,0.00
2018-05-21T20:30:16.716Z,0.00
2018-05-21T20:30:55.782Z,0.00
2018-05-21T20:31:55.779Z,0.00
2018-05-21T20:32:55.779Z,0.00
2018-05-21T20:33:55.800Z,0.00
2018-05-21T20:34:55.824Z,0.00
2018-05-21T20:36:16.859Z,0.00
2018-05-21T20:36:55.920Z,0.00
2018-05-21T20:37:55.899Z,0.00
2018-05-21T20:38:55.936Z,0.00
2018-05-21T20:39:55.959Z,0.00
2018-05-21T20:40:55.975Z,0.00
2018-05-21T20:42:17.053Z,0.00
2018-05-21T20:42:56.057Z,0.00
2018-05-21T20:43:56.106Z,0.00
2018-05-21T20:44:56.090Z,0.00
2018-05-21T20:45:56.133Z,0.00
2018-05-21T20:46:56.165Z,0.00
2018-05-21T20:48:17.214Z,0.00
2018-05-21T20:48:56.242Z,0.00
2018-05-21T20:49:56.244Z,0.00
2018-05-21T20:50:56.280Z,0.00
2018-05-21T20:51:56.328Z,0.00
2018-05-21T20:52:56.326Z,0.00
2018-05-21T20:54:17.432Z,0.00
2018-05-21T20:54:56.483Z,0.00
2018-05-21T20:55:56.443Z,0.00
2018-05-21T20:56:56.490Z,0.00
2018-05-21T20:57:56.479Z,0.00
2018-05-21T20:58:56.518Z,0.00
2018-05-21T21:00:17.578Z,0.00
2018-05-21T21:00:56.578Z,0.00
2018-05-21T21:01:56.620Z,0.00
2018-05-21T21:02:56.676Z,0.00
2018-05-21T21:03:56.648Z,0.00
2018-05-21T21:04:56.689Z,0.00
2018-05-21T21:06:17.751Z,0.00
2018-05-21T21:06:56.750Z,0.00
2018-05-21T21:07:56.817Z,0.00
2018-05-21T21:08:56.830Z,0.00
2018-05-21T21:09:56.857Z,0.00
2018-05-21T21:10:56.894Z,0.00
2018-05-21T21:12:17.927Z,0.00
2018-05-21T21:12:56.914Z,0.00
2018-05-21T21:13:56.936Z,0.00
2018-05-21T21:14:56.998Z,0.00
2018-05-21T21:15:57.102Z,0.00
2018-05-21T21:16:57.053Z,0.00
2018-05-21T21:18:18.144Z,0.00
2018-05-21T21:18:57.104Z,0.00
2018-05-21T21:19:57.202Z,0.00
2018-05-21T21:20:57.160Z,0.00
2018-05-21T21:21:57.237Z,0.00
2018-05-21T21:22:57.221Z,0.00
2018-05-21T21:24:18.273Z,0.00
2018-05-21T21:24:57.279Z,0.00
2018-05-21T21:25:57.283Z,0.00
2018-05-21T21:26:57.372Z,0.00
2018-05-21T21:27:57.366Z,0.00
2018-05-21T21:28:57.380Z,0.00
2018-05-21T21:30:18.414Z,0.00
2018-05-21T21:30:57.441Z,0.00
2018-05-21T21:31:57.547Z,0.00
2018-05-21T21:32:57.567Z,0.00
2018-05-21T21:33:57.572Z,0.00
2018-05-21T21:34:57.549Z,0.00
2018-05-21T21:36:19.410Z,0.00
2018-05-21T21:36:57.684Z,0.00
2018-05-21T21:37:57.654Z,0.00
2018-05-21T21:38:57.718Z,0.00
2018-05-21T21:39:57.729Z,0.00
2018-05-21T21:40:57.730Z,0.00
2018-05-21T21:42:18.810Z,0.00
2018-05-21T21:42:57.803Z,0.00
2018-05-21T21:43:57.815Z,0.00
2018-05-21T21:44:57.894Z,0.00
2018-05-21T21:45:57.928Z,0.00
2018-05-21T21:46:57.954Z,0.00
2018-05-21T21:48:18.960Z,0.00
2018-05-21T21:48:58.021Z,0.00
2018-05-21T21:49:57.997Z,0.00
2018-05-21T21:50:58.008Z,0.00
2018-05-21T21:51:58.070Z,0.00
2018-05-21T21:52:58.079Z,0.00
2018-05-21T21:54:19.152Z,0.00
2018-05-21T21:54:58.124Z,0.00
2018-05-21T21:55:58.218Z,0.00
2018-05-21T21:56:58.286Z,0.00
2018-05-21T21:57:58.235Z,0.00
2018-05-21T21:58:58.327Z,0.00
2018-05-21T22:00:19.332Z,0.00
2018-05-21T22:00:58.309Z,0.00
2018-05-21T22:01:58.347Z,0.00
2018-05-21T22:02:58.386Z,0.00
2018-05-21T22:03:58.397Z,0.00
2018-05-21T22:04:58.454Z,0.00
2018-05-21T22:06:19.472Z,0.00
2018-05-21T22:06:58.485Z,0.00
2018-05-21T22:07:58.567Z,0.00
2018-05-21T22:08:58.537Z,0.00
2018-05-21T22:09:58.576Z,0.00
2018-05-21T22:10:58.596Z,0.00
2018-05-21T22:12:19.646Z,0.00
2018-05-21T22:12:58.668Z,0.00
2018-05-21T22:13:58.675Z,0.00
2018-05-21T22:14:58.752Z,0.00
2018-05-21T22:15:58.742Z,0.00
2018-05-21T22:16:58.765Z,0.00
2018-05-21T22:18:19.834Z,0.00
2018-05-21T22:18:58.846Z,0.00
2018-05-21T22:19:59.081Z,0.00
2018-05-21T22:20:58.914Z,0.00
2018-05-21T22:21:58.918Z,0.00
2018-05-21T22:22:59.026Z,0.00
2018-05-21T22:24:20.033Z,0.00
2018-05-21T22:24:59.021Z,0.00
2018-05-21T22:25:59.041Z,0.00
2018-05-21T22:26:59.106Z,0.00
2018-05-21T22:27:59.107Z,0.00
2018-05-21T22:28:59.192Z,0.00
2018-05-21T22:30:20.166Z,0.00
2018-05-21T22:30:59.191Z,0.00
2018-05-21T22:31:59.216Z,0.00
2018-05-21T22:32:59.250Z,0.00
2018-05-21T22:33:59.268Z,0.00
2018-05-21T22:34:59.305Z,0.00
2018-05-21T22:36:20.334Z,0.00
2018-05-21T22:36:59.371Z,0.00
2018-05-21T22:37:59.397Z,0.00
2018-05-21T22:38:59.446Z,0.00
2018-05-21T22:39:59.444Z,0.00
2018-05-21T22:40:59.461Z,0.00
2018-05-21T22:42:20.505Z,0.00
2018-05-21T22:42:59.520Z,0.00
2018-05-21T22:43:59.561Z,0.00
2018-05-21T22:45:00.431Z,0.00
2018-05-21T22:45:59.634Z,0.00
2018-05-21T22:46:59.651Z,0.00
2018-05-21T22:48:20.680Z,0.00
2018-05-21T22:48:59.713Z,0.00
2018-05-21T22:49:59.724Z,0.00
2018-05-21T22:50:59.816Z,0.00
2018-05-21T22:51:59.798Z,0.00
2018-05-21T22:52:59.820Z,0.00
2018-05-21T22:54:20.848Z,0.00
2018-05-21T22:54:59.874Z,0.00
2018-05-21T22:55:59.900Z,0.00
2018-05-21T22:56:59.977Z,0.00
2018-05-21T22:57:59.951Z,0.00
2018-05-21T22:59:00.111Z,0.00
2018-05-21T23:00:21.029Z,0.00
2018-05-21T23:01:00.066Z,0.00
2018-05-21T23:02:00.063Z,0.00
2018-05-21T23:03:00.108Z,0.00
2018-05-21T23:04:00.130Z,0.00
2018-05-21T23:05:00.164Z,0.00
2018-05-21T23:06:21.208Z,0.00
2018-05-21T23:07:00.233Z,0.00
2018-05-21T23:08:00.256Z,0.00
2018-05-21T23:09:00.273Z,0.00
2018-05-21T23:10:00.375Z,0.00
2018-05-21T23:11:00.316Z,0.00
2018-05-21T23:12:21.458Z,0.00
2018-05-21T23:13:00.367Z,0.00
2018-05-21T23:14:00.401Z,0.00
2018-05-21T23:15:00.454Z,0.00
2018-05-21T23:16:00.459Z,0.00
2018-05-21T23:17:00.691Z,0.00
2018-05-21T23:18:21.564Z,0.00
2018-05-21T23:19:01.117Z,0.00
2018-05-21T23:20:00.576Z,0.00
2018-05-21T23:22:25.383Z,0.00
2018-05-21T23:23:25.363Z,0.00
2018-05-21T23:24:46.413Z,0.00
2018-05-21T23:25:25.447Z,0.00
2018-05-21T23:26:25.451Z,0.00
2018-05-21T23:27:25.550Z,0.00
2018-05-21T23:28:25.518Z,0.00
2018-05-21T23:29:25.591Z,0.00
2018-05-21T23:30:46.612Z,0.00
2018-05-21T23:31:25.608Z,0.00
2018-05-21T23:32:25.633Z,0.00
2018-05-21T23:33:25.656Z,0.00
2018-05-21T23:34:25.766Z,0.00